createdAt,value
2022-11-25T00:03:17.599Z,6.94
2022-11-25T00:07:20.386Z,6.95
2022-11-25T00:11:23.311Z,6.96
2022-11-25T00:15:26.078Z,7.01
2022-11-25T00:19:30.221Z,7.06
2022-11-25T00:23:33.595Z,7.14
2022-11-25T00:27:36.379Z,7.18
2022-11-25T00:31:40.694Z,7.25
2022-11-25T00:35:44.831Z,7.30
2022-11-25T00:39:47.769Z,7.35
2022-11-25T00:44:07.906Z,7.43
2022-11-25T00:48:10.629Z,7.49
2022-11-25T00:52:17.289Z,7.55
2022-11-25T00:56:20.000Z,7.60
2022-11-25T01:00:23.625Z,7.64
2022-11-25T01:04:26.439Z,7.68
2022-11-25T01:08:32.435Z,7.76
2022-11-25T01:12:35.175Z,7.80
2022-11-25T01:16:37.939Z,7.81
2022-11-25T01:20:43.358Z,7.87
2022-11-25T01:24:47.428Z,7.90
2022-11-25T01:28:54.003Z,7.90
2022-11-25T01:32:56.816Z,7.95
2022-11-25T01:36:59.867Z,7.99
2022-11-25T01:41:05.342Z,8.01
2022-11-25T01:45:35.204Z,8.01
2022-11-25T01:49:41.854Z,8.03
2022-11-25T01:53:44.828Z,8.04
2022-11-25T01:57:55.239Z,8.06
2022-11-25T02:02:01.584Z,8.09
2022-11-25T02:06:11.157Z,8.06
2022-11-25T02:10:17.612Z,8.06
2022-11-25T02:14:24.180Z,8.06
2022-11-25T02:18:28.433Z,8.08
2022-11-25T02:22:41.973Z,8.10
2022-11-25T02:26:46.417Z,8.11
2022-11-25T02:30:50.127Z,8.11
2022-11-25T02:34:53.492Z,8.12
2022-11-25T02:38:58.099Z,8.14
2022-11-25T02:43:08.286Z,8.18
2022-11-25T02:47:11.024Z,8.19
2022-11-25T02:51:17.786Z,8.16
2022-11-25T02:55:20.550Z,8.18
2022-11-25T02:59:24.661Z,8.23
2022-11-25T03:03:27.409Z,8.23
2022-11-25T03:07:30.704Z,8.27
2022-11-25T03:11:53.150Z,8.33
2022-11-25T03:15:59.087Z,8.36
2022-11-25T03:20:02.701Z,8.36
2022-11-25T03:24:05.999Z,8.36
2022-11-25T03:28:08.707Z,8.36
2022-11-25T03:32:13.157Z,8.35
2022-11-25T03:36:16.076Z,8.35
2022-11-25T03:40:19.253Z,8.39
2022-11-25T03:44:22.224Z,8.39
2022-11-25T03:48:26.349Z,8.37
2022-11-25T03:52:29.665Z,8.33
2022-11-25T03:56:33.726Z,8.31
2022-11-25T04:00:36.614Z,8.36
2022-11-25T04:04:41.371Z,8.36
2022-11-25T04:08:44.747Z,8.40
2022-11-25T04:12:48.531Z,8.39
2022-11-25T04:17:02.061Z,8.40
2022-11-25T04:21:06.634Z,8.41
2022-11-25T04:25:10.537Z,8.46
2022-11-25T04:29:13.389Z,8.50
2022-11-25T04:33:16.722Z,8.54
2022-11-25T04:37:23.658Z,8.59
2022-11-25T04:41:27.037Z,8.61
2022-11-25T04:45:45.335Z,8.62
2022-11-25T04:49:53.008Z,8.62
2022-11-25T04:53:58.016Z,8.61
2022-11-25T04:58:01.653Z,8.60
2022-11-25T05:02:06.383Z,8.64
2022-11-25T05:06:12.801Z,8.64
2022-11-25T05:10:17.029Z,8.62
2022-11-25T05:14:23.940Z,8.65
2022-11-25T05:18:26.885Z,8.66
2022-11-25T05:22:31.363Z,8.68
2022-11-25T05:26:35.834Z,8.73
2022-11-25T05:30:38.690Z,8.78
2022-11-25T05:34:42.407Z,8.80
2022-11-25T05:38:45.425Z,8.78
2022-11-25T05:42:53.543Z,8.79
2022-11-25T05:46:56.677Z,8.82
2022-11-25T05:51:01.006Z,8.84
2022-11-25T05:55:05.570Z,8.86
2022-11-25T05:59:10.709Z,8.83
2022-11-25T06:03:25.065Z,8.83
2022-11-25T06:07:28.035Z,8.84
2022-11-25T06:11:31.068Z,8.81
2022-11-25T06:15:35.317Z,8.81
2022-11-25T06:19:40.130Z,8.81
2022-11-25T06:23:46.123Z,8.81
2022-11-25T06:28:11.914Z,8.81
2022-11-25T06:32:15.447Z,8.83
2022-11-25T06:36:31.967Z,8.81
2022-11-25T06:40:34.701Z,8.85
2022-11-25T06:44:37.642Z,8.82
2022-11-25T06:48:41.926Z,8.85
2022-11-25T06:52:44.730Z,8.81
2022-11-25T06:56:51.548Z,8.81
2022-11-25T07:00:54.257Z,8.81
2022-11-25T07:04:58.405Z,8.82
2022-11-25T07:09:02.091Z,8.82
2022-11-25T07:13:05.327Z,8.81
2022-11-25T07:17:12.003Z,8.82
2022-11-25T07:21:18.084Z,8.85
2022-11-25T07:25:20.814Z,8.83
2022-11-25T07:33:47.644Z,8.88
2022-11-25T07:37:53.050Z,8.89
2022-11-25T07:41:56.239Z,8.89
2022-11-25T07:46:09.809Z,8.88
2022-11-25T07:50:12.887Z,8.88
2022-11-25T07:54:17.516Z,8.92
2022-11-25T07:58:20.235Z,8.95
2022-11-25T08:02:23.784Z,8.94
2022-11-25T08:06:29.258Z,8.97
2022-11-25T08:10:33.911Z,8.99
2022-11-25T08:14:37.056Z,9.02
2022-11-25T08:18:40.439Z,9.05
2022-11-25T08:22:43.550Z,9.08
2022-11-25T08:26:51.376Z,9.10
2022-11-25T08:30:54.210Z,9.12
2022-11-25T08:34:57.230Z,9.17
2022-11-25T08:39:02.275Z,9.22
2022-11-25T08:43:06.783Z,9.22
2022-11-25T08:47:10.019Z,9.24
2022-11-25T08:51:15.450Z,9.22
2022-11-25T08:55:18.640Z,9.22
2022-11-25T08:59:25.372Z,9.18
2022-11-25T09:03:28.847Z,9.18
2022-11-25T09:07:32.018Z,9.20
2022-11-25T09:11:34.883Z,9.17
2022-11-25T09:15:40.304Z,9.18
2022-11-25T09:19:43.300Z,9.18
2022-11-25T09:23:46.603Z,9.22
2022-11-25T09:27:49.499Z,9.25
2022-11-25T09:31:55.080Z,9.30
2022-11-25T09:36:01.526Z,9.35
2022-11-25T09:40:05.564Z,9.39
2022-11-25T09:44:39.235Z,9.48
2022-11-25T09:48:59.193Z,9.49
2022-11-25T09:53:12.003Z,9.52
2022-11-25T09:57:24.367Z,9.53
2022-11-25T10:01:30.351Z,9.57
2022-11-25T10:05:40.099Z,9.58
2022-11-25T10:09:43.885Z,9.61
2022-11-25T10:13:53.889Z,9.63
2022-11-25T10:18:01.215Z,9.67
2022-11-25T10:22:18.798Z,9.70
2022-11-25T10:26:24.034Z,9.74
2022-11-25T10:30:29.074Z,9.77
2022-11-25T10:34:38.015Z,9.79
2022-11-25T10:38:46.669Z,9.82
2022-11-25T10:42:49.415Z,9.87
2022-11-25T10:47:17.826Z,9.88
2022-11-25T10:51:34.030Z,9.91
2022-11-25T10:55:39.505Z,9.95
2022-11-25T10:59:42.678Z,9.98
2022-11-25T11:03:47.798Z,10.01
2022-11-25T11:08:09.727Z,10.09
2022-11-25T11:12:22.401Z,10.13
2022-11-25T11:16:30.840Z,10.20
2022-11-25T11:20:35.126Z,10.25
2022-11-25T11:24:39.139Z,10.30
2022-11-25T11:28:43.565Z,10.32
2022-11-25T11:32:55.911Z,10.33
2022-11-25T11:37:18.518Z,10.33
2022-11-25T11:41:31.465Z,10.36
2022-11-25T11:45:54.055Z,10.39
2022-11-25T11:50:09.854Z,10.44
2022-11-25T11:54:19.676Z,10.48
2022-11-25T11:58:33.940Z,10.55
2022-11-25T12:02:50.930Z,10.59
2022-11-25T12:07:03.450Z,10.61
2022-11-25T12:11:12.761Z,10.63
2022-11-25T12:15:20.596Z,10.68
2022-11-25T12:19:30.999Z,10.70
2022-11-25T12:23:46.436Z,10.74
2022-11-25T12:27:54.831Z,10.79
2022-11-25T12:32:03.832Z,10.86
2022-11-25T12:36:14.470Z,10.90
2022-11-25T12:40:26.011Z,10.94
2022-11-25T12:44:34.715Z,11.03
2022-11-25T12:48:44.749Z,11.07
2022-11-25T12:53:02.785Z,11.16
2022-11-25T12:57:27.848Z,11.21
2022-11-25T13:02:15.800Z,11.27
2022-11-25T13:06:33.738Z,11.34
2022-11-25T13:11:04.752Z,11.35
2022-11-25T13:15:24.012Z,11.36
2022-11-25T13:19:27.187Z,11.41
2022-11-25T13:23:48.643Z,11.42
2022-11-25T13:28:01.422Z,11.42
2022-11-25T13:32:25.111Z,11.44
2022-11-25T13:36:45.728Z,11.44
2022-11-25T13:40:58.056Z,11.44
2022-11-25T13:45:02.822Z,11.44
2022-11-25T13:49:07.290Z,11.44
2022-11-25T13:53:22.863Z,11.43
2022-11-25T13:57:28.761Z,11.43
2022-11-25T14:01:33.726Z,11.41
2022-11-25T14:06:01.067Z,11.39
2022-11-25T14:10:37.951Z,11.33
2022-11-25T14:14:55.998Z,11.33
2022-11-25T14:19:54.895Z,11.30
2022-11-25T14:24:07.554Z,11.31
2022-11-25T14:28:23.181Z,11.27
2022-11-25T14:32:31.595Z,11.28
2022-11-25T14:36:41.956Z,11.26
2022-11-25T14:40:54.844Z,11.25
2022-11-25T14:44:58.409Z,11.24
2022-11-25T14:49:07.651Z,11.25
2022-11-25T14:53:16.382Z,11.23
2022-11-25T14:57:27.087Z,11.23
2022-11-25T15:01:31.947Z,11.20
2022-11-25T15:05:36.418Z,11.18
2022-11-25T15:09:45.418Z,11.12
2022-11-25T15:13:52.967Z,11.09
2022-11-25T15:17:55.863Z,11.02
2022-11-25T15:26:29.016Z,10.87
2022-11-25T15:30:34.124Z,10.84
2022-11-25T15:34:45.147Z,10.75
2022-11-25T15:38:48.839Z,10.70
2022-11-25T15:42:53.096Z,10.67
2022-11-25T15:47:00.659Z,10.68
2022-11-25T15:51:05.923Z,10.66
2022-11-25T15:55:21.026Z,10.62
2022-11-25T15:59:46.801Z,10.54
2022-11-25T16:03:51.186Z,10.52
2022-11-25T16:08:25.419Z,10.44
2022-11-25T16:12:28.447Z,10.33
2022-11-25T16:16:33.230Z,10.23
2022-11-25T16:20:36.688Z,10.17
2022-11-25T16:24:43.225Z,10.07
2022-11-25T16:28:53.103Z,9.96
2022-11-25T16:32:57.420Z,9.88
2022-11-25T16:37:00.137Z,9.82
2022-11-25T16:41:10.349Z,9.80
2022-11-25T16:45:20.394Z,9.78
2022-11-25T16:49:25.691Z,9.76
2022-11-25T16:53:28.836Z,9.75
2022-11-25T16:57:31.874Z,9.75
2022-11-25T17:01:35.293Z,9.73
2022-11-25T17:05:39.544Z,9.73
2022-11-25T17:09:44.089Z,9.67
2022-11-25T17:13:50.377Z,9.61
2022-11-25T17:17:53.499Z,9.57
2022-11-25T17:21:59.946Z,9.51
2022-11-25T17:26:02.839Z,9.47
2022-11-25T17:30:08.162Z,9.44
2022-11-25T17:34:15.422Z,9.39
2022-11-25T17:38:21.262Z,9.35
2022-11-25T17:42:28.158Z,9.29
2022-11-25T17:46:30.899Z,9.21
2022-11-25T17:50:36.049Z,9.15
2022-11-25T17:54:40.694Z,9.09
2022-11-25T17:58:43.852Z,9.05
2022-11-25T18:02:46.839Z,9.01
2022-11-25T18:06:50.023Z,8.97
2022-11-25T18:10:54.149Z,8.93
2022-11-25T18:14:57.321Z,8.88
2022-11-25T18:19:00.185Z,8.83
2022-11-25T18:23:03.536Z,8.80
2022-11-25T18:27:11.799Z,8.78
2022-11-25T18:31:14.637Z,8.73
2022-11-25T18:35:20.074Z,8.68
2022-11-25T18:39:23.337Z,8.66
2022-11-25T18:43:28.534Z,8.61
2022-11-25T18:47:31.366Z,8.57
2022-11-25T18:51:34.284Z,8.53
2022-11-25T18:55:37.198Z,8.46
2022-11-25T18:59:43.946Z,8.44
2022-11-25T19:03:47.760Z,8.42
2022-11-25T19:07:53.428Z,8.38
2022-11-25T19:11:57.506Z,8.34
2022-11-25T19:16:06.848Z,8.29
2022-11-25T19:20:16.053Z,8.20
2022-11-25T19:24:18.815Z,8.16
2022-11-25T19:28:23.353Z,8.13
2022-11-25T19:32:30.467Z,8.08
2022-11-25T19:36:34.904Z,8.07
2022-11-25T19:40:40.275Z,8.03
2022-11-25T19:44:43.427Z,8.00
2022-11-25T19:48:47.564Z,7.97
2022-11-25T19:52:50.779Z,7.94
2022-11-25T19:56:53.488Z,7.90
2022-11-25T20:00:59.132Z,7.89
2022-11-25T20:05:04.950Z,7.83
2022-11-25T20:09:11.064Z,7.79
2022-11-25T20:13:16.183Z,7.77
2022-11-25T20:17:26.107Z,7.75
2022-11-25T20:21:34.637Z,7.72
2022-11-25T20:25:41.597Z,7.72
2022-11-25T20:29:44.329Z,7.73
2022-11-25T20:33:48.295Z,7.73
2022-11-25T20:37:54.108Z,7.69
2022-11-25T20:41:56.882Z,7.68
2022-11-25T20:46:02.267Z,7.61
2022-11-25T20:50:05.970Z,7.59
2022-11-25T20:54:14.184Z,7.50
2022-11-25T20:58:23.402Z,7.50
2022-11-25T21:02:26.210Z,7.42
2022-11-25T21:06:31.110Z,7.41
2022-11-25T21:10:35.206Z,7.40
2022-11-25T21:14:38.226Z,7.43
2022-11-25T21:18:42.817Z,7.43
2022-11-25T21:22:49.659Z,7.45
2022-11-25T21:26:55.222Z,7.42
2022-11-25T21:30:57.971Z,7.41
2022-11-25T21:35:03.836Z,7.35
2022-11-25T21:39:08.995Z,7.31
2022-11-25T21:43:21.706Z,7.20
2022-11-25T21:47:26.276Z,7.12
2022-11-25T21:51:29.042Z,7.04
2022-11-25T21:55:33.568Z,6.98
2022-11-25T21:59:37.696Z,6.92
2022-11-25T22:03:40.568Z,6.86
2022-11-25T22:07:43.716Z,6.79
2022-11-25T22:11:50.215Z,6.82
2022-11-25T22:15:57.825Z,6.88
2022-11-25T22:20:00.739Z,6.92
2022-11-25T22:24:06.690Z,6.94
2022-11-25T22:28:14.121Z,6.96
2022-11-25T22:32:19.193Z,6.96
2022-11-25T22:36:32.407Z,6.92
2022-11-25T22:40:36.003Z,6.94
2022-11-25T22:44:42.751Z,6.95
2022-11-25T22:48:47.741Z,6.93
2022-11-25T22:52:51.140Z,6.92
2022-11-25T22:56:53.858Z,6.91
2022-11-25T23:00:57.620Z,6.91
2022-11-25T23:05:02.404Z,6.90
2022-11-25T23:09:05.208Z,6.86
2022-11-25T23:13:08.341Z,6.86
2022-11-25T23:17:18.601Z,6.83
2022-11-25T23:21:25.429Z,6.78
2022-11-25T23:25:28.428Z,6.75
2022-11-25T23:29:31.162Z,6.72
2022-11-25T23:33:38.116Z,6.69
2022-11-25T23:37:42.668Z,6.69
2022-11-25T23:41:46.553Z,6.69
2022-11-25T23:45:52.266Z,6.68
2022-11-25T23:49:58.510Z,6.70
2022-11-25T23:54:02.875Z,6.71
2022-11-25T23:58:13.164Z,6.71
